Thunderstorms From: 26-05-2018 05:06 Until: 27-05-2018 05:00 warning for: Thunderstorms Level: Yellow info button

Although rather usual in this region, locally or potentially dangerous phenomena are expected. (such as local winds, summer thunderstorms, rising streams or high waves) Be aware and pay attention to the latest weather updates, especially if you carry out activities exposed to weather or close to a stream or shoreline. 


Meteo18 Weather Cam more information Meteo18 Weather Cam


warning for Thunderstorms more information blitzortung!


Rain radar more information rain snow radar


Visit our other weather sites:

Template documentation
and downloads

And another site



Weather Underground History page Text

Daily Summary for September 28, 2017 Units:  English    Metric   Both
« Previous Day
Next Day »
Daily Weekly Monthly Yearly Custom
  High: Low: Average:
Temperature: TemperatureC °F 11.8 °F 16.8 °F
Dew Point: DewpointC °F 11.2 °F 13.9 °F
Humidity: Humidity % 60 % 84 %
Wind Speed: WindSpeedKMH mph 0.0 mph 1.7 mph
Wind Gust: WindSpeedGustKMH mph - -
Wind:- - SW
Pressure: PressurehPa in 1021.9 in -
Precipitation: 0.0 in    
Historical Graphs
 
 
Tabular Data for September 28, 2017
Time Temperature Dew Point Pressure Wind Wind Speed Wind Gust Humidity Rainfall Rate (Hourly)
TemperatureC °F DewpointC °F PressurehPa in Calm     Humidity % HourlyPrecipMM in
00:02 14.8 °F 13.3 °F 1021.9 in Calm   1.6 mph 91 % 0.0 in
00:12 14.7 °F 13.6 °F 1021.9 in Calm   1.6 mph 93 % 0.0 in
00:17 14.8 °F 13.7 °F 1021.9 in Calm   1.6 mph 93 % 0.0 in
00:22 14.9 °F 13.8 °F 1021.9 in Calm     93 % 0.0 in
00:27 15.1 °F 14.0 °F 1021.9 in SE 1.6 mph   93 % 0.0 in
00:32 15.3 °F 14.0 °F 1021.9 in Calm   3.2 mph 92 % 0.0 in
00:42 15.1 °F 13.6 °F 1021.9 in Calm   3.2 mph 91 % 0.0 in
00:52 15.0 °F 13.5 °F 1022.2 in Calm     91 % 0.0 in
00:57 14.7 °F 13.2 °F 1021.9 in SE 1.6 mph 1.6 mph 91 % 0.0 in
01:02 14.8 °F 13.5 °F 1022.2 in SE 1.6 mph 1.6 mph 92 % 0.0 in
01:12 14.8 °F 13.5 °F 1022.2 in SE 1.6 mph 1.6 mph 92 % 0.0 in
01:17 14.8 °F 13.5 °F 1021.9 in SE 1.6 mph 1.6 mph 92 % 0.0 in
01:22 14.7 °F 13.2 °F 1021.9 in Calm   1.6 mph 91 % 0.0 in
01:32 14.4 °F 13.1 °F 1022.2 in WNW 1.6 mph 3.2 mph 92 % 0.0 in
01:42 14.3 °F 13.3 °F 1021.9 in Calm   3.2 mph 94 % 0.0 in
01:47 14.2 °F 13.1 °F 1022.2 in WNW 1.6 mph 3.2 mph 93 % 0.0 in
01:52 14.0 °F 13.0 °F 1022.2 in WNW 1.6 mph 3.2 mph 94 % 0.0 in
01:57 13.9 °F 12.9 °F 1022.2 in Calm   3.2 mph 94 % 0.0 in
02:02 13.8 °F 12.9 °F 1022.2 in Calm   3.2 mph 94 % 0.0 in
02:12 14.2 °F 13.4 °F 1022.2 in Calm   3.2 mph 95 % 0.0 in
02:17 13.9 °F 12.9 °F 1022.2 in Calm   1.6 mph 94 % 0.0 in
02:22 13.5 °F 12.6 °F 1022.2 in Calm   1.6 mph 94 % 0.0 in
02:27 13.4 °F 12.6 °F 1022.2 in Calm   1.6 mph 95 % 0.0 in
02:32 13.5 °F 12.7 °F 1022.2 in Calm   1.6 mph 95 % 0.0 in
02:37 13.7 °F 13.1 °F 1022.2 in Calm   1.6 mph 96 % 0.0 in
02:42 13.7 °F 12.9 °F 1022.2 in Calm   1.6 mph 95 % 0.0 in
02:47 13.4 °F 12.5 °F 1022.2 in Calm     94 % 0.0 in
02:52 13.2 °F 12.4 °F 1022.2 in Calm     95 % 0.0 in
02:57 13.2 °F 12.4 °F 1022.6 in Calm     95 % 0.0 in
03:02 12.9 °F 12.1 °F 1022.2 in Calm     95 % 0.0 in
03:12 12.9 °F 12.3 °F 1022.6 in Calm   1.6 mph 96 % 0.0 in
03:17 13.0 °F 12.4 °F 1022.2 in Calm     96 % 0.0 in
03:22 12.9 °F 12.3 °F 1022.2 in Calm     96 % 0.0 in
03:27 13.0 °F 12.4 °F 1022.2 in Calm     96 % 0.0 in
03:32 12.8 °F 12.0 °F 1022.6 in Calm     95 % 0.0 in
03:42 12.7 °F 12.1 °F 1022.2 in Calm     96 % 0.0 in
03:47 12.8 °F 12.2 °F 1022.2 in Calm     96 % 0.0 in
03:52 12.7 °F 12.1 °F 1022.2 in Calm     96 % 0.0 in
03:57 12.4 °F 11.6 °F 1022.2 in Calm   1.6 mph 95 % 0.0 in
04:02 12.3 °F 11.7 °F 1022.2 in Calm   1.6 mph 96 % 0.0 in
04:12 12.5 °F 12.0 °F 1022.6 in Calm   1.6 mph 97 % 0.0 in
04:17 12.3 °F 11.7 °F 1022.6 in Calm     96 % 0.0 in
04:22 12.2 °F 11.6 °F 1022.6 in Calm     96 % 0.0 in
04:27 12.3 °F 11.7 °F 1022.6 in Calm     96 % 0.0 in
04:32 12.5 °F 12.0 °F 1022.6 in Calm     97 % 0.0 in
04:37 12.7 °F 12.2 °F 1022.9 in Calm     97 % 0.0 in
04:42 12.7 °F 12.2 °F 1022.9 in Calm     97 % 0.0 in
04:47 12.9 °F 12.4 °F 1022.9 in Calm     97 % 0.0 in
04:52 13.0 °F 12.5 °F 1022.9 in Calm     97 % 0.0 in
05:02 13.0 °F 12.5 °F 1022.9 in Calm     97 % 0.0 in
05:12 12.9 °F 12.3 °F 1022.9 in Calm     96 % 0.0 in
05:17 12.8 °F 12.2 °F 1022.9 in Calm     96 % 0.0 in
05:22 12.7 °F 12.1 °F 1022.9 in Calm     96 % 0.0 in
05:27 12.4 °F 11.8 °F 1022.9 in Calm     96 % 0.0 in
05:32 12.1 °F 11.3 °F 1022.9 in Calm     95 % 0.0 in
05:42 11.8 °F 11.2 °F 1022.9 in Calm     96 % 0.0 in
05:47 11.9 °F 11.4 °F 1022.9 in Calm     97 % 0.0 in
05:52 12.2 °F 11.7 °F 1022.9 in Calm     97 % 0.0 in
05:57 12.3 °F 11.8 °F 1022.9 in Calm     97 % 0.0 in
06:02 12.4 °F 11.9 °F 1022.9 in Calm     97 % 0.0 in
06:12 12.6 °F 12.1 °F 1023.2 in Calm     97 % 0.0 in
06:17 12.6 °F 12.1 °F 1023.2 in Calm     97 % 0.0 in
06:22 12.6 °F 12.1 °F 1023.2 in Calm     97 % 0.0 in
06:32 12.6 °F 12.1 °F 1023.2 in Calm     97 % 0.0 in
06:37 12.6 °F 12.1 °F 1023.2 in Calm     97 % 0.0 in
06:42 12.6 °F 12.1 °F 1023.2 in Calm     97 % 0.0 in
06:52 12.4 °F 11.9 °F 1023.2 in Calm     97 % 0.0 in
06:57 12.4 °F 11.9 °F 1023.2 in Calm     97 % 0.0 in
07:02 12.4 °F 11.9 °F 1023.2 in Calm     97 % 0.0 in
07:12 12.4 °F 11.9 °F 1023.2 in Calm     97 % 0.0 in
07:17 12.4 °F 11.9 °F 1023.2 in Calm     97 % 0.0 in
07:22 12.3 °F 11.8 °F 1023.2 in Calm     97 % 0.0 in
07:32 12.4 °F 11.9 °F 1023.2 in Calm     97 % 0.0 in
07:42 12.4 °F 11.9 °F 1023.6 in NNE 3.2 mph   97 % 0.0 in
07:47 12.3 °F 11.8 °F 1023.6 in NNE 1.6 mph 3.2 mph 97 % 0.0 in
07:52 12.4 °F 11.9 °F 1023.6 in Calm   3.2 mph 97 % 0.0 in
08:02 12.3 °F 11.8 °F 1023.6 in Calm   3.2 mph 97 % 0.0 in
08:12 12.4 °F 11.9 °F 1023.6 in Calm   1.6 mph 97 % 0.0 in
08:17 12.3 °F 11.8 °F 1023.6 in Calm   1.6 mph 97 % 0.0 in
08:22 12.4 °F 11.9 °F 1023.6 in Calm   1.6 mph 97 % 0.0 in
08:32 12.4 °F 11.9 °F 1023.9 in Calm   1.6 mph 97 % 0.0 in
08:37 12.4 °F 11.9 °F 1023.9 in Calm     97 % 0.0 in
08:42 12.5 °F 12.0 °F 1023.9 in Calm     97 % 0.0 in
08:47 12.6 °F 12.1 °F 1023.9 in Calm     97 % 0.0 in
08:52 12.7 °F 12.2 °F 1023.9 in Calm     97 % 0.0 in
09:02 12.7 °F 12.2 °F 1023.9 in Calm   1.6 mph 97 % 0.0 in
09:12 12.8 °F 12.3 °F 1023.9 in Calm   1.6 mph 97 % 0.0 in
09:17 12.9 °F 12.4 °F 1024.3 in Calm   1.6 mph 97 % 0.0 in
09:22 13.1 °F 12.6 °F 1024.3 in Calm   1.6 mph 97 % 0.0 in
09:32 13.3 °F 12.8 °F 1024.3 in Calm   1.6 mph 97 % 0.0 in
09:37 13.3 °F 12.8 °F 1024.3 in Calm     97 % 0.0 in
09:42 13.6 °F 13.1 °F 1024.3 in Calm     97 % 0.0 in
09:52 13.9 °F 13.4 °F 1024.3 in Calm   1.6 mph 97 % 0.0 in
10:02 14.3 °F 13.8 °F 1024.3 in SW 1.6 mph 1.6 mph 97 % 0.0 in
10:07 14.6 °F 14.1 °F 1024.3 in Calm   3.2 mph 97 % 0.0 in
10:12 14.6 °F 14.0 °F 1024.6 in SW 1.6 mph 3.2 mph 96 % 0.0 in
10:17 14.8 °F 14.2 °F 1024.3 in Calm   6.4 mph 96 % 0.0 in
10:22 14.9 °F 14.1 °F 1024.3 in SW 1.6 mph 6.4 mph 95 % 0.0 in
10:27 15.2 °F 14.4 °F 1024.6 in SW 1.6 mph 6.4 mph 95 % 0.0 in
10:32 15.6 °F 14.6 °F 1024.3 in SSW 3.2 mph 6.4 mph 94 % 0.0 in
10:42 15.9 °F 14.3 °F 1024.6 in SSW 1.6 mph 4.8 mph 90 % 0.0 in
10:52 16.3 °F 14.3 °F 1024.3 in SSW 1.6 mph 6.4 mph 88 % 0.0 in
11:02 16.8 °F 14.6 °F 1024.3 in SW 1.6 mph 6.4 mph 87 % 0.0 in
11:12 17.1 °F 14.6 °F 1024.6 in SSW 4.8 mph 6.4 mph 85 % 0.0 in
11:17 17.2 °F 14.5 °F 1024.6 in SE 1.6 mph 6.4 mph 84 % 0.0 in
11:22 17.4 °F 14.5 °F 1024.6 in SW 8.0 mph 8.0 mph 83 % 0.0 in
11:32 18.1 °F 15.0 °F 1024.3 in SSW 1.6 mph 9.7 mph 82 % 0.0 in
11:42 18.4 °F 14.1 °F 1024.3 in WSW 9.7 mph 9.7 mph 76 % 0.0 in
11:47 18.4 °F 14.1 °F 1024.3 in South 6.4 mph 12.9 mph 76 % 0.0 in
11:52 18.6 °F 14.5 °F 1024.3 in SSW 6.4 mph 12.9 mph 77 % 0.0 in
11:57 18.7 °F 14.4 °F 1024.3 in SSW 4.8 mph 12.9 mph 76 % 0.0 in
12:02 18.9 °F 14.6 °F 1024.3 in SW 11.3 mph 12.9 mph 76 % 0.0 in
12:12 19.2 °F 14.5 °F 1024.3 in SW 8.0 mph 14.5 mph 74 % 0.0 in
12:17 19.1 °F 14.1 °F 1024.3 in SW 11.3 mph 14.5 mph 73 % 0.0 in
12:22 19.2 °F 14.9 °F 1024.3 in WSW 4.8 mph 14.5 mph 76 % 0.0 in
12:32 19.5 °F 14.7 °F 1024.3 in WSW 8.0 mph 12.9 mph 74 % 0.0 in
12:42 19.8 °F 14.8 °F 1024.3 in West 4.8 mph 12.9 mph 73 % 0.0 in
12:52 20.0 °F 15.2 °F 1024.3 in WSW 1.6 mph 12.9 mph 74 % 0.0 in
12:57 20.1 °F 14.9 °F 1024.3 in Calm   9.7 mph 72 % 0.0 in
13:02 20.3 °F 15.1 °F 1024.3 in WNW 4.8 mph 9.7 mph 72 % 0.0 in
13:07 20.6 °F 15.4 °F 1024.3 in SSW 6.4 mph 9.7 mph 72 % 0.0 in
13:12 20.7 °F 15.3 °F 1024.3 in SW 3.2 mph 12.9 mph 71 % 0.0 in
13:17 20.9 °F 15.0 °F 1024.3 in SW 8.0 mph 12.9 mph 69 % 0.0 in
13:22 20.9 °F 14.8 °F 1024.3 in SW 6.4 mph 14.5 mph 68 % 0.0 in
13:32 20.9 °F 15.2 °F 1023.9 in SSW 1.6 mph 14.5 mph 70 % 0.0 in
13:37 20.9 °F 14.8 °F 1023.9 in SW 8.0 mph 14.5 mph 68 % 0.0 in
13:42 20.8 °F 14.9 °F 1023.9 in SSW 6.4 mph 14.5 mph 69 % 0.0 in
13:52 20.8 °F 15.3 °F 1023.9 in SW 3.2 mph 14.5 mph 71 % 0.0 in
14:02 21.2 °F 15.3 °F 1023.9 in SSE 4.8 mph 12.9 mph 69 % 0.0 in
14:12 21.4 °F 15.5 °F 1023.9 in SSW 6.4 mph 12.9 mph 69 % 0.0 in
14:22 21.2 °F 15.1 °F 1023.9 in SW 4.8 mph 12.9 mph 68 % 0.0 in
14:32 21.4 °F 15.5 °F 1023.9 in SW 6.4 mph 12.9 mph 69 % 0.0 in
14:42 21.6 °F 15.2 °F 1023.9 in SW 3.2 mph 16.1 mph 67 % 0.0 in
14:47 21.7 °F 15.3 °F 1023.9 in SSW 6.4 mph 16.1 mph 67 % 0.0 in
14:52 21.9 °F 15.5 °F 1023.9 in SSW 3.2 mph 14.5 mph 67 % 0.0 in
14:57 22.1 °F 15.9 °F 1023.9 in WSW 4.8 mph 14.5 mph 68 % 0.0 in
15:02 22.4 °F 15.7 °F 1023.9 in South 4.8 mph 12.9 mph 66 % 0.0 in
15:12 22.7 °F 16.3 °F 1023.9 in SSW 6.4 mph 12.9 mph 67 % 0.0 in
15:17 22.7 °F 15.5 °F 1023.9 in WSW 11.3 mph 12.9 mph 64 % 0.0 in
15:22 22.6 °F 15.2 °F 1023.9 in SSW 6.4 mph 16.1 mph 63 % 0.0 in
15:27 22.6 °F 14.9 °F 1023.9 in SW 4.8 mph 16.1 mph 62 % 0.0 in
15:32 22.4 °F 15.0 °F 1023.9 in SSW 11.3 mph 16.1 mph 63 % 0.0 in
15:42 22.7 °F 15.5 °F 1023.9 in South 1.6 mph 14.5 mph 64 % 0.0 in
15:52 22.9 °F 15.7 °F 1023.6 in SW 4.8 mph 14.5 mph 64 % 0.0 in
15:57 22.9 °F 15.5 °F 1023.6 in South 4.8 mph 9.7 mph 63 % 0.0 in
16:02 22.8 °F 15.4 °F 1023.6 in SW 3.2 mph 9.7 mph 63 % 0.0 in
16:07 22.9 °F 15.7 °F 1023.6 in SSE 6.4 mph 12.9 mph 64 % 0.0 in
16:12 22.9 °F 15.7 °F 1023.6 in SSW 8.0 mph 12.9 mph 64 % 0.0 in
16:17 22.9 °F 15.5 °F 1023.6 in Calm   12.9 mph 63 % 0.0 in
16:22 22.9 °F 15.5 °F 1023.6 in WSW 3.2 mph 12.9 mph 63 % 0.0 in
16:27 22.8 °F 15.4 °F 1023.6 in WSW 6.4 mph 12.9 mph 63 % 0.0 in
16:32 22.9 °F 15.5 °F 1023.6 in SE 3.2 mph 12.9 mph 63 % 0.0 in
16:37 23.1 °F 15.7 °F 1023.6 in SSW 12.9 mph 16.1 mph 63 % 0.0 in
16:42 23.1 °F 15.7 °F 1023.2 in WSW 4.8 mph 16.1 mph 63 % 0.0 in
16:47 23.2 °F 15.3 °F 1023.2 in SW 9.7 mph 16.1 mph 61 % 0.0 in
17:02 22.8 °F 15.4 °F 1023.2 in West 4.8 mph 16.1 mph 63 % 0.0 in
17:12 23.0 °F 15.8 °F 1023.6 in SW 1.6 mph 16.1 mph 64 % 0.0 in
17:17 23.1 °F 15.7 °F 1023.2 in WSW 1.6 mph 12.9 mph 63 % 0.0 in
17:22 23.3 °F 15.9 °F 1023.2 in WSW 4.8 mph 8.0 mph 63 % 0.0 in
17:27 23.3 °F 15.9 °F 1023.2 in SW 6.4 mph 6.4 mph 63 % 0.0 in
17:32 23.2 °F 15.5 °F 1023.2 in SW 3.2 mph 9.7 mph 62 % 0.0 in
17:42 23.5 °F 15.5 °F 1023.6 in SSW 1.6 mph 11.3 mph 61 % 0.0 in
17:47 23.5 °F 15.8 °F 1023.6 in Calm   9.7 mph 62 % 0.0 in
17:57 23.8 °F 15.8 °F 1023.6 in WSW 4.8 mph 6.4 mph 61 % 0.0 in
18:02 23.7 °F 15.7 °F 1023.6 in SSW 1.6 mph 6.4 mph 61 % 0.0 in
18:07 23.7 °F 15.5 °F 1023.6 in SSW 1.6 mph 6.4 mph 60 % 0.0 in
18:17 23.3 °F 15.4 °F 1023.6 in SW 3.2 mph 8.0 mph 61 % 0.0 in
18:22 23.1 °F 15.2 °F 1023.6 in WSW 4.8 mph 8.0 mph 61 % 0.0 in
18:27 22.9 °F 15.7 °F 1023.6 in SW 1.6 mph 8.0 mph 64 % 0.0 in
18:32 22.8 °F 15.9 °F 1023.2 in Calm   6.4 mph 65 % 0.0 in
18:37 22.6 °F 15.9 °F 1023.2 in WSW 1.6 mph 6.4 mph 66 % 0.0 in
18:42 22.4 °F 15.5 °F 1023.2 in SW 3.2 mph 3.2 mph 65 % 0.0 in
18:52 22.1 °F 15.7 °F 1023.6 in Calm   4.8 mph 67 % 0.0 in
18:57 21.9 °F 15.7 °F 1023.2 in Calm   3.2 mph 68 % 0.0 in
19:02 21.7 °F 15.5 °F 1023.6 in Calm   3.2 mph 68 % 0.0 in
19:12 21.3 °F 15.8 °F 1023.6 in Calm   1.6 mph 71 % 0.0 in
19:17 21.1 °F 15.6 °F 1023.6 in Calm     71 % 0.0 in
19:22 20.8 °F 15.8 °F 1023.6 in Calm     73 % 0.0 in
19:32 20.1 °F 15.7 °F 1023.6 in WNW 1.6 mph   76 % 0.0 in
19:37 19.7 °F 15.3 °F 1023.6 in Calm   1.6 mph 76 % 0.0 in
19:42 19.6 °F 15.5 °F 1023.6 in Calm   1.6 mph 77 % 0.0 in
19:47 19.3 °F 15.4 °F 1023.6 in WNW 1.6 mph 1.6 mph 78 % 0.0 in
19:52 19.2 °F 15.7 °F 1023.6 in Calm   1.6 mph 80 % 0.0 in
19:57 19.1 °F 15.8 °F 1023.6 in Calm   1.6 mph 81 % 0.0 in
20:02 19.0 °F 15.7 °F 1023.6 in Calm   1.6 mph 81 % 0.0 in
20:12 18.9 °F 15.6 °F 1023.6 in Calm   1.6 mph 81 % 0.0 in
20:17 18.8 °F 15.7 °F 1023.6 in Calm   1.6 mph 82 % 0.0 in
20:22 18.6 °F 15.8 °F 1023.6 in Calm   1.6 mph 84 % 0.0 in
20:27 18.4 °F 15.6 °F 1023.6 in Calm   1.6 mph 84 % 0.0 in
20:32 18.2 °F 15.5 °F 1023.6 in Calm   1.6 mph 84 % 0.0 in
20:42 18.2 °F 15.6 °F 1023.6 in Calm   1.6 mph 85 % 0.0 in
20:52 18.0 °F 15.4 °F 1023.9 in North 1.6 mph 3.2 mph 85 % 0.0 in
20:57 17.9 °F 15.5 °F 1023.9 in Calm   3.2 mph 86 % 0.0 in
21:02 17.8 °F 15.4 °F 1023.9 in Calm   3.2 mph 86 % 0.0 in
21:12 17.6 °F 15.4 °F 1023.9 in Calm   1.6 mph 87 % 0.0 in
21:17 17.6 °F 15.2 °F 1023.9 in Calm   1.6 mph 86 % 0.0 in
21:22 17.7 °F 15.3 °F 1023.9 in Calm   1.6 mph 86 % 0.0 in
21:32 17.3 °F 15.1 °F 1023.9 in Calm   3.2 mph 87 % 0.0 in
21:37 17.2 °F 15.0 °F 1023.9 in Calm   3.2 mph 87 % 0.0 in
21:42 17.2 °F 15.2 °F 1023.9 in NNW 1.6 mph 3.2 mph 88 % 0.0 in
21:47 17.2 °F 15.2 °F 1023.9 in Calm   1.6 mph 88 % 0.0 in
21:52 17.1 °F 15.1 °F 1023.9 in Calm   1.6 mph 88 % 0.0 in
22:02 16.8 °F 15.0 °F 1023.9 in Calm   1.6 mph 89 % 0.0 in
22:12 16.8 °F 15.1 °F 1023.9 in North 1.6 mph 1.6 mph 90 % 0.0 in
22:17 16.7 °F 15.1 °F 1023.9 in Calm   1.6 mph 90 % 0.0 in
22:22 16.6 °F 15.0 °F 1023.9 in Calm   3.2 mph 90 % 0.0 in
22:32 16.5 °F 15.0 °F 1023.9 in North 1.6 mph 3.2 mph 91 % 0.0 in
22:37 16.5 °F 14.9 °F 1023.9 in Calm   3.2 mph 90 % 0.0 in
22:42 16.4 °F 14.8 °F 1023.9 in Calm   3.2 mph 90 % 0.0 in
22:47 16.2 °F 14.6 °F 1023.9 in Calm   3.2 mph 90 % 0.0 in
22:52 16.1 °F 14.6 °F 1023.9 in Calm   1.6 mph 91 % 0.0 in
22:57 16.1 °F 14.6 °F 1023.9 in Calm     91 % 0.0 in
23:02 15.9 °F 14.4 °F 1023.9 in Calm     91 % 0.0 in
23:07 15.7 °F 14.2 °F 1023.9 in Calm     91 % 0.0 in
23:12 15.6 °F 14.3 °F 1023.9 in Calm     92 % 0.0 in
23:17 15.6 °F 14.5 °F 1023.9 in WNW 1.6 mph 1.6 mph 93 % 0.0 in
23:22 15.6 °F 14.5 °F 1023.9 in NW 1.6 mph 1.6 mph 93 % 0.0 in
23:27 15.7 °F 14.6 °F 1023.9 in North 1.6 mph 1.6 mph 93 % 0.0 in
23:32 15.7 °F 14.6 °F 1023.9 in Calm   3.2 mph 93 % 0.0 in
23:37 15.6 °F 14.5 °F 1023.9 in NNE 1.6 mph 3.2 mph 93 % 0.0 in
23:42 15.5 °F 14.4 °F 1023.9 in North 1.6 mph 3.2 mph 93 % 0.0 in
23:52 15.3 °F 14.2 °F 1023.6 in Calm   3.2 mph 93 % 0.0 in
23:57 15.3 °F 14.2 °F 1023.6 in Calm   3.2 mph 93 % 0.0 in
Meteo18
Compliments of Weather Underground - 4 mb

Script developed by  Jim McMurry - jmcmurry@mwt.net Adapted for the template by  Wim van der Kuil - Leuven-Template.eu

You find our weather info also at:

European Weather Network

Weather Underground

Equipment we use:

Weather-station
Davis Vue

Weather-program
Meteobridge

Weather-server
Raspberry PI 2 B+

Provider
1 and 1

Davis Vue

Meteobridge

Raspberry PI 2 B+

1 and 1